< Typhoon 197817 1978 Season Typhoon 197819 >
Typhoon 197818 (IRMA)
General InformationTrack Information on Google MapsDetailed Wind Information || Disaster Info.ResourceGoogle EarthGE AnimationAtom FeedGeoJSON
Detalied Best Track (Time Zone = UTC)
Year Month Day Hour Lat. Long. Pressure (hPa) Wind (kt) Class Image Chart
1978 9 9 00 17.0 124.0 1008 0 2 -- Chart
1978 9 9 06 17.4 123.4 1006 0 2 -- Chart
1978 9 9 12 17.9 123.0 1006 0 2 -- Chart
1978 9 9 18 18.9 122.0 1006 0 2 -- Chart
1978 9 10 00 19.9 121.0 1004 0 2 -- Chart
1978 9 10 06 20.4 121.0 1004 0 2 -- Chart
1978 9 10 12 21.0 121.0 1002 0 2 -- Chart
1978 9 10 18 21.4 121.3 1000 0 2 -- Chart
1978 9 11 00 22.0 121.6 998 0 2 -- Chart
1978 9 11 06 22.5 121.8 998 0 2 -- Chart
1978 9 11 12 23.4 122.0 998 0 2 -- Chart
1978 9 11 18 24.2 122.3 994 45 3 -- Chart
1978 9 12 00 25.0 122.4 990 50 4 -- Chart
1978 9 12 06 25.4 123.0 990 50 4 -- Chart
1978 9 12 12 25.8 123.6 990 55 4 -- Chart
1978 9 12 18 26.5 123.6 980 55 4 -- Chart
1978 9 13 00 27.2 123.6 980 55 4 -- Chart
1978 9 13 06 27.8 123.6 975 60 4 -- Chart
1978 9 13 12 28.5 123.8 975 60 4 -- Chart
1978 9 13 18 29.3 124.5 975 60 4 -- Chart
1978 9 14 00 29.9 125.0 975 60 4 -- Chart
1978 9 14 06 30.9 125.3 975 60 4 -- Chart
1978 9 14 12 31.5 126.2 975 60 4 -- Chart
1978 9 14 18 32.4 127.3 970 65 5 -- Chart
1978 9 15 00 33.2 128.8 970 65 5 -- Chart
1978 9 15 06 34.2 130.5 975 60 4 -- Chart
1978 9 15 12 34.7 133.0 992 45 3 -- Chart
1978 9 15 18 35.5 135.2 998 0 2 -- Chart
Japan Meteorological Agency Best Track Data | Correction Date : 1992-10-21
< Typhoon 197817 1978 Season Typhoon 197819 >

Help